Time;durP1;ratioP1;P1;durP2;ratioP2;P2;SDS_P1;SDS_P2;PMS_P1;PMS_P2;Temp;Humidity;BMP_temperature;BMP_pressure;BME280_temperature;BME280_humidity;BME280_pressure;Samples;Min_cycle;Max_cycle;Signal;HPM_P1;HPM_P2
2022/11/07 00:01:22;;;;;;;15.17;13.10;;;8.10;92.50;;;8.09;81.60;97813.59;4958488;28;20866;-74
2022/11/07 00:03:49;;;;;;;13.43;11.90;;;8.20;92.20;;;8.10;81.40;97807.19;4979973;28;20457;-73
2022/11/07 00:06:16;;;;;;;17.57;13.23;;;8.10;92.40;;;8.18;80.85;97812.38;4979413;28;20554;-74
2022/11/07 00:08:44;;;;;;;13.73;12.33;;;8.20;92.20;;;8.25;80.20;97812.41;4970165;28;20455;-72
2022/11/07 00:11:12;;;;;;;14.47;12.17;;;8.20;92.00;;;8.24;79.98;97805.34;4984566;28;20487;-73
2022/11/07 00:13:39;;;;;;;13.20;11.80;;;8.20;91.60;;;8.19;79.88;97813.22;4987757;28;20503;-72
2022/11/07 00:16:09;;;;;;;12.90;11.33;;;8.20;90.90;;;7.99;79.41;97781.72;4984640;28;20546;-73
2022/11/07 00:18:37;;;;;;;13.30;11.90;;;8.20;90.40;;;8.18;78.68;97817.78;4969654;28;21235;-73
2022/11/07 00:21:07;;;;;;;12.70;11.03;;;8.20;90.30;;;8.14;78.37;97818.38;4981150;28;20462;-73
2022/11/07 00:23:35;;;;;;;13.43;11.87;;;8.20;89.90;;;8.06;78.77;97816.72;4988724;28;20468;-72
2022/11/07 00:26:03;;;;;;;13.77;10.90;;;8.10;90.00;;;8.12;78.30;97826.69;4981432;28;20809;-74
2022/11/07 00:28:33;;;;;;;12.10;10.90;;;8.10;90.00;;;8.13;78.43;97832.88;4968972;28;20523;-73
2022/11/07 00:31:00;;;;;;;11.07;9.87;;;8.10;90.20;;;8.19;77.70;97835.56;4983036;28;20546;-73
2022/11/07 00:33:29;;;;;;;12.00;10.80;;;8.10;90.10;;;8.16;78.20;97830.59;4984906;28;20459;-74
2022/11/07 00:35:56;;;;;;;10.83;9.73;;;8.20;90.00;;;7.87;77.45;97775.28;4984228;28;20468;-73
2022/11/07 00:38:27;;;;;;;13.40;10.40;;;8.20;89.30;;;8.39;76.89;97842.03;4966427;28;20479;-73
2022/11/07 00:40:55;;;;;;;10.20;9.17;;;8.30;88.80;;;8.47;76.45;97839.13;4985005;28;20467;-74
2022/11/07 00:43:23;;;;;;;11.33;10.13;;;8.40;87.90;;;8.59;76.17;97844.78;4985521;28;20562;-73
2022/11/07 00:45:51;;;;;;;10.97;9.87;;;8.50;87.60;;;8.71;74.65;97845.78;4990822;28;20477;-73
2022/11/07 00:48:19;;;;;;;10.33;9.33;;;8.60;86.90;;;8.53;76.15;97837.50;4985154;28;20795;-73
2022/11/07 00:50:47;;;;;;;9.43;8.50;;;8.60;86.70;;;8.68;74.98;97856.97;4971375;28;20905;-72
2022/11/07 00:53:14;;;;;;;9.73;8.63;;;8.60;86.20;;;8.66;75.16;97847.47;4975990;28;21335;-74
2022/11/07 00:55:41;;;;;;;11.20;9.77;;;8.60;86.50;;;8.76;74.87;97862.16;4989306;28;20492;-71
2022/11/07 00:58:09;;;;;;;10.83;9.73;;;8.70;86.10;;;8.65;74.57;97865.47;4984419;28;20582;-74
2022/11/07 01:00:37;;;;;;;9.97;8.97;;;8.70;85.80;;;8.61;74.27;97858.84;4993707;28;20497;-74
2022/11/07 01:05:58;;;;;;;9.23;8.33;;;8.70;85.50;;;8.74;73.90;97872.31;4968519;28;20988;-73
2022/11/07 01:08:25;;;;;;;8.13;7.33;;;8.60;85.30;;;8.84;73.54;97871.06;4960877;28;20463;-72
2022/11/07 01:10:53;;;;;;;8.27;7.40;;;8.70;85.10;;;8.97;72.36;97865.66;4962401;28;20490;-72
2022/11/07 01:13:20;;;;;;;8.90;8.00;;;8.80;84.80;;;8.95;73.05;97867.75;4977912;28;20451;-73
2022/11/07 01:15:48;;;;;;;6.67;6.07;;;8.90;84.90;;;8.95;72.56;97867.75;4977403;28;20461;-73
2022/11/07 01:18:16;;;;;;;7.60;6.63;;;8.90;84.60;;;8.97;72.82;97872.94;4961481;28;20455;-72
2022/11/07 01:20:44;;;;;;;6.80;6.20;;;9.00;84.60;;;8.83;73.75;97861.31;4975309;28;20478;-73
2022/11/07 01:23:11;;;;;;;6.00;5.47;;;9.00;84.60;;;8.88;74.39;97869.63;4992973;28;20460;-73
2022/11/07 01:25:39;;;;;;;6.97;5.80;;;9.00;84.80;;;8.86;74.49;97863.59;4990028;28;20457;-72
2022/11/07 01:28:09;;;;;;;6.27;5.67;;;8.90;84.60;;;8.78;73.74;97857.41;4976044;28;20453;-72
2022/11/07 01:30:38;;;;;;;5.83;5.23;;;8.90;84.90;;;8.61;74.58;97850.78;4986114;28;20479;-73
2022/11/07 01:33:06;;;;;;;6.63;5.90;;;8.90;85.40;;;8.62;75.07;97873.97;4984060;28;20983;-73
2022/11/07 01:35:35;;;;;;;6.00;5.47;;;8.90;85.10;;;8.85;74.03;97875.41;4966311;28;20862;-74
2022/11/07 01:38:03;;;;;;;6.83;6.20;;;8.90;85.00;;;8.89;74.36;97879.38;4988592;28;20489;-73
2022/11/07 01:40:32;;;;;;;5.60;5.10;;;8.90;85.40;;;8.85;73.57;97872.72;4967434;28;20516;-72
2022/11/07 01:42:59;;;;;;;6.27;5.77;;;8.90;85.00;;;8.76;74.46;97856.78;4973691;28;20475;-73
2022/11/07 01:45:29;;;;;;;7.23;6.30;;;9.00;85.30;;;8.96;74.34;97890.97;4990540;28;20461;-73
2022/11/07 01:48:00;;;;;;;7.40;6.67;;;9.00;85.50;;;9.16;73.74;97890.94;4991716;28;20461;-72
2022/11/07 01:50:28;;;;;;;6.93;6.07;;;9.00;85.50;;;9.04;74.31;97888.06;4990110;28;20480;-72
2022/11/07 01:52:57;;;;;;;5.57;4.93;;;9.00;85.50;;;8.98;74.21;97871.91;4964438;28;20494;-71
2022/11/07 01:55:30;;;;;;;6.90;6.30;;;8.90;85.60;;;9.12;73.27;97886.19;4980588;28;20460;-72
2022/11/07 01:58:01;;;;;;;7.10;6.40;;;9.10;85.20;;;9.23;73.45;97887.41;4980375;28;20467;-73
2022/11/07 02:00:30;;;;;;;7.97;6.20;;;9.20;85.00;;;8.94;73.20;97890.34;4966394;28;20450;-73
2022/11/07 02:03:01;;;;;;;6.83;5.50;;;9.10;84.90;;;8.91;74.12;97872.72;4973761;28;20454;-72
2022/11/07 02:05:33;;;;;;;6.90;6.30;;;9.10;85.00;;;8.96;74.16;97890.97;4959956;28;20483;-74
2022/11/07 02:08:05;;;;;;;6.00;5.47;;;9.10;84.90;;;8.92;74.70;97887.03;4972814;28;20464;-73
2022/11/07 02:10:34;;;;;;;6.43;5.00;;;9.00;85.20;;;8.90;74.63;97887.22;4985203;28;20477;-73
2022/11/07 02:13:03;;;;;;;6.13;5.53;;;9.00;85.30;;;9.06;74.01;97890.53;4987542;28;21003;-74
2022/11/07 02:15:30;;;;;;;6.20;5.60;;;9.10;85.20;;;8.92;74.67;97885.16;4990078;28;20456;-72
2022/11/07 02:17:58;;;;;;;6.97;6.10;;;9.00;85.30;;;9.01;74.90;97883.06;4973352;28;20465;-73
2022/11/07 02:20:26;;;;;;;6.03;5.53;;;9.00;85.50;;;9.01;75.00;97874.97;4972106;28;20947;-73
2022/11/07 02:22:57;;;;;;;6.93;6.03;;;9.10;85.50;;;9.03;75.36;97878.31;4956973;28;20457;-72
2022/11/07 02:25:26;;;;;;;7.80;5.57;;;9.00;85.80;;;9.07;75.40;97876.84;4981953;28;20496;-72
2022/11/07 02:27:57;;;;;;;7.10;5.47;;;9.10;85.70;;;9.09;75.56;97873.13;4984736;28;20790;-72
2022/11/07 02:30:28;;;;;;;5.40;4.90;;;9.10;85.80;;;9.05;74.34;97878.94;4967305;28;21048;-74
2022/11/07 02:32:56;;;;;;;5.87;5.30;;;9.10;85.60;;;9.06;75.06;97880.59;4983513;28;20472;-72
2022/11/07 02:35:38;;;;;;;4.67;4.27;;;9.10;85.80;;;9.05;75.38;97883.50;4985831;28;20471;-74
2022/11/07 02:38:11;;;;;;;5.87;5.33;;;9.10;86.00;;;9.20;75.53;97886.78;4978291;28;20460;-72
2022/11/07 02:40:40;;;;;;;5.57;5.00;;;9.10;86.30;;;9.22;75.52;97873.09;4981253;28;20462;-72
2022/11/07 02:43:11;;;;;;;5.23;4.73;;;9.10;86.30;;;9.26;75.35;97882.44;4967685;28;20461;-72
2022/11/07 02:45:42;;;;;;;4.77;4.37;;;9.20;86.10;;;9.29;74.78;97876.59;4978069;28;21234;-72
2022/11/07 02:48:09;;;;;;;5.60;5.10;;;9.20;86.50;;;9.35;74.09;97883.88;4984313;28;20464;-72
2022/11/07 02:50:36;;;;;;;4.70;4.30;;;9.20;86.50;;;9.43;74.83;97885.50;4967047;28;21297;-72
2022/11/07 02:53:04;;;;;;;4.90;4.50;;;9.30;86.60;;;9.49;74.98;97873.06;4969452;28;20489;-75
2022/11/07 02:55:31;;;;;;;5.00;4.10;;;9.30;87.00;;;9.31;75.21;97868.31;4961306;28;20472;-75
2022/11/07 02:58:00;;;;;;;4.93;4.50;;;9.30;86.50;;;9.53;74.37;97873.44;4966979;28;20464;-75
2022/11/07 03:00:27;;;;;;;4.03;3.70;;;9.40;86.60;;;9.46;74.50;97863.50;4981552;28;20466;-74
2022/11/07 03:02:54;;;;;;;5.00;3.97;;;9.40;86.50;;;9.27;75.20;97840.94;4979471;28;20461;-72
2022/11/07 03:05:22;;;;;;;4.83;4.40;;;9.30;86.90;;;9.40;75.78;97858.97;4983164;28;20481;-72
2022/11/07 03:07:49;;;;;;;4.10;3.80;;;9.30;87.10;;;9.39;75.71;97873.47;4979607;28;20472;-74
2022/11/07 03:10:18;;;;;;;3.80;3.50;;;9.30;87.00;;;9.31;75.82;97866.44;4984159;28;20511;-72
2022/11/07 03:12:45;;;;;;;4.90;4.50;;;9.20;87.30;;;9.42;75.91;97866.84;4965305;28;20542;-73
2022/11/07 03:15:14;;;;;;;3.87;3.57;;;9.20;87.80;;;9.50;75.85;97877.41;4983058;28;20519;-74
2022/11/07 03:17:42;;;;;;;3.47;3.20;;;9.30;87.80;;;9.56;75.58;97876.53;4974136;28;21124;-73
2022/11/07 03:20:11;;;;;;;5.07;3.70;;;9.40;87.70;;;9.60;75.74;97877.78;4980675;28;20470;-72
2022/11/07 03:22:39;;;;;;;3.17;2.90;;;9.40;87.80;;;9.54;75.83;97858.91;4982556;28;20864;-73
2022/11/07 03:25:07;;;;;;;3.90;3.50;;;9.40;88.00;;;9.73;75.49;97878.78;4979145;28;20471;-75
2022/11/07 03:27:35;;;;;;;4.60;4.20;;;9.40;88.20;;;9.60;76.14;97880.47;4984801;28;20748;-71
2022/11/07 03:30:02;;;;;;;4.10;3.73;;;9.50;88.00;;;9.61;75.65;97887.50;4982848;28;20470;-72
2022/11/07 03:32:33;;;;;;;4.27;3.87;;;9.50;87.80;;;9.49;77.00;97886.53;4968332;28;20980;-72
2022/11/07 03:35:00;;;;;;;4.87;4.47;;;9.50;88.00;;;9.38;77.11;97876.41;4984350;28;20814;-73
2022/11/07 03:37:27;;;;;;;4.77;4.37;;;9.50;88.00;;;9.31;77.47;97893.41;4981967;28;20473;-73
2022/11/07 03:39:56;;;;;;;5.00;4.50;;;9.40;88.20;;;9.12;77.78;97896.97;4967362;28;20523;-74
2022/11/07 03:42:23;;;;;;;6.30;5.33;;;9.30;88.70;;;9.14;78.70;97894.88;4985068;28;20460;-74
2022/11/07 03:44:50;;;;;;;5.93;5.10;;;9.20;89.20;;;9.12;77.94;97894.25;4973831;28;20490;-73
2022/11/07 03:47:17;;;;;;;6.23;5.63;;;9.20;89.60;;;8.98;78.80;97883.50;4969945;28;20461;-73
2022/11/07 03:49:46;;;;;;;8.33;6.70;;;9.10;89.90;;;9.09;79.28;97894.69;4986217;28;20468;-72
2022/11/07 03:52:13;;;;;;;8.57;6.00;;;9.10;90.00;;;9.18;77.94;97896.13;4986989;28;20487;-73
2022/11/07 03:54:41;;;;;;;6.83;6.23;;;9.20;90.20;;;9.21;78.23;97898.41;4970100;28;20466;-74
2022/11/07 03:57:08;;;;;;;7.13;5.87;;;9.20;90.10;;;9.17;78.57;97902.53;4984162;28;20462;-72
2022/11/07 03:59:35;;;;;;;6.10;5.50;;;9.20;90.10;;;9.30;77.78;97910.63;4980497;28;20464;-73
2022/11/07 04:02:03;;;;;;;5.20;4.70;;;9.20;90.20;;;9.37;78.23;97905.22;4984736;28;20444;-72
2022/11/07 04:04:30;;;;;;;5.70;5.13;;;9.20;90.30;;;9.44;78.17;97905.19;4979534;28;20461;-73
2022/11/07 04:06:58;;;;;;;5.30;4.87;;;9.30;90.10;;;9.43;77.04;97911.63;4965530;28;21025;-73
2022/11/07 04:09:26;;;;;;;6.10;4.53;;;9.30;90.00;;;9.53;77.00;97912.03;4989454;28;20481;-72
2022/11/07 04:17:23;;;;;;;4.37;3.97;;;9.30;90.10;;;9.47;78.15;97913.72;4987906;28;20468;-73
2022/11/07 04:19:53;;;;;;;4.17;3.80;;;9.30;89.90;;;9.57;77.52;97917.84;4973957;28;20616;-73
2022/11/07 04:22:23;;;;;;;4.50;3.97;;;9.40;90.00;;;9.49;77.14;97908.13;4992667;28;20460;-73
2022/11/07 04:24:51;;;;;;;5.47;4.60;;;9.40;90.10;;;9.57;77.67;97926.75;4991439;28;20456;-73
2022/11/07 04:30:18;;;;;;;4.07;3.67;;;9.50;89.80;;;9.39;78.28;97931.97;4991169;28;20454;-70
2022/11/07 04:32:47;;;;;;;4.10;3.70;;;9.40;90.10;;;9.44;77.70;97935.72;4974885;28;20462;-73
2022/11/07 04:35:14;;;;;;;4.53;3.73;;;9.40;90.20;;;9.45;77.64;97945.44;4984850;28;20615;-74
2022/11/07 04:37:44;;;;;;;4.70;4.30;;;9.40;90.20;;;9.00;78.35;97875.22;4965930;28;20457;-74
2022/11/07 04:40:12;;;;;;;4.40;3.53;;;9.30;90.40;;;9.39;78.61;97932.78;4969810;28;20929;-75
2022/11/07 04:42:39;;;;;;;3.80;3.50;;;9.30;90.60;;;9.18;78.88;97931.19;4971139;28;20458;-74
2022/11/07 04:45:09;;;;;;;3.87;3.50;;;9.30;90.60;;;9.14;79.26;97935.31;4984579;28;20473;-74
2022/11/07 04:47:36;;;;;;;4.03;3.73;;;9.10;91.10;;;8.74;81.29;97925.34;4978833;28;20466;-74
2022/11/07 04:50:05;;;;;;;3.70;3.33;;;8.90;91.60;;;8.72;81.98;97938.22;4983151;28;21012;-73
2022/11/07 04:52:32;;;;;;;4.10;3.40;;;8.80;92.60;;;8.60;82.08;97925.34;4984508;28;20817;-72
2022/11/07 04:55:01;;;;;;;4.23;3.57;;;8.70;93.30;;;8.18;82.26;97890.44;4971956;28;20890;-72
2022/11/07 04:57:28;;;;;;;5.40;3.57;;;8.60;93.40;;;8.42;83.11;97944.75;4975613;28;20513;-73
2022/11/07 04:59:56;;;;;;;4.10;3.70;;;8.40;94.50;;;8.29;83.91;97940.16;4978555;28;20859;-72
2022/11/07 05:02:24;;;;;;;3.90;3.43;;;8.40;95.20;;;8.25;84.52;97943.44;4971975;28;20457;-74
2022/11/07 05:04:52;;;;;;;3.80;3.40;;;8.30;95.70;;;8.33;84.14;97945.97;4967477;28;20560;-75
2022/11/07 05:07:20;;;;;;;4.47;3.30;;;8.40;95.90;;;8.57;83.97;97959.91;4975045;28;20940;-73
2022/11/07 05:09:47;;;;;;;3.83;3.53;;;8.50;95.60;;;8.64;83.37;97958.09;4986715;28;20969;-72
2022/11/07 05:12:15;;;;;;;4.10;3.70;;;8.60;95.10;;;8.76;82.44;97958.31;4984576;28;20924;-72
2022/11/07 05:14:43;;;;;;;3.70;3.40;;;8.60;94.70;;;8.81;82.70;97957.69;4977805;28;20525;-73
2022/11/07 05:17:14;;;;;;;4.07;3.77;;;8.70;94.30;;;8.75;82.34;97957.50;4988202;28;20453;-73
2022/11/07 05:19:43;;;;;;;4.00;3.60;;;8.80;93.80;;;8.97;81.63;97962.69;4988891;28;20497;-73
2022/11/07 05:25:00;;;;;;;5.10;3.67;;;8.90;93.30;;;8.79;81.87;97958.72;4914592;28;20466;-73
2022/11/07 05:27:29;;;;;;;4.50;4.10;;;8.90;93.00;;;8.86;82.53;97960.59;4988458;28;20478;-72
2022/11/07 05:29:56;;;;;;;4.27;3.87;;;8.90;92.90;;;8.87;82.46;97967.63;4986630;28;20466;-73
2022/11/07 05:32:23;;;;;;;3.93;3.63;;;8.90;93.10;;;8.89;81.61;97955.63;4969667;28;21415;-74
2022/11/07 05:34:51;;;;;;;4.40;4.00;;;8.90;93.10;;;8.77;82.12;97947.34;4980558;28;20456;-73
2022/11/07 05:37:18;;;;;;;3.87;3.57;;;8.90;93.00;;;8.95;81.28;97970.16;4960736;28;20480;-71
2022/11/07 05:39:45;;;;;;;4.90;4.00;;;8.90;93.00;;;8.96;80.99;97971.81;4975013;28;20600;-67
2022/11/07 05:42:12;;;;;;;6.73;4.57;;;8.90;92.80;;;9.00;80.61;97977.63;4987485;28;20539;-68
2022/11/07 05:44:41;;;;;;;5.10;4.23;;;8.90;92.70;;;8.92;80.99;97982.16;4980096;28;20463;-66
2022/11/07 05:47:09;;;;;;;4.30;3.90;;;9.00;92.40;;;8.90;81.87;97969.94;4969499;28;20468;-68
2022/11/07 05:49:36;;;;;;;4.80;4.10;;;9.00;92.50;;;8.99;80.72;97966.00;4985593;28;20463;-67
2022/11/07 05:52:03;;;;;;;4.50;3.80;;;9.00;92.00;;;8.84;81.61;97962.66;4982708;28;20611;-72
2022/11/07 05:54:31;;;;;;;4.50;3.67;;;9.00;92.20;;;9.06;82.14;97966.84;4965696;28;20474;-68
2022/11/07 05:56:59;;;;;;;5.57;3.97;;;9.00;93.00;;;8.98;80.36;97975.13;4982493;28;20496;-67
2022/11/07 05:59:26;;;;;;;3.93;3.63;;;9.00;92.20;;;8.73;81.44;97977.56;4987778;28;20465;-68
2022/11/07 06:01:55;;;;;;;4.03;3.63;;;8.90;92.30;;;8.85;81.15;97983.19;4983037;28;20464;-68
2022/11/07 06:04:22;;;;;;;4.40;4.00;;;8.90;92.60;;;8.88;81.27;97982.78;4962613;28;20457;-68
2022/11/07 06:06:49;;;;;;;4.80;4.33;;;8.90;92.70;;;8.96;81.05;97987.97;4978873;28;20468;-70
2022/11/07 06:09:17;;;;;;;5.50;4.40;;;8.90;93.10;;;8.90;81.28;97975.31;4977993;28;20777;-71
2022/11/07 06:11:44;;;;;;;5.30;4.23;;;8.80;92.90;;;8.91;80.89;97980.50;4979879;28;20546;-71
2022/11/07 06:14:11;;;;;;;4.17;3.77;;;8.80;93.20;;;8.87;81.43;97983.81;4966885;28;20465;-71
2022/11/07 06:16:38;;;;;;;4.90;4.40;;;8.80;93.20;;;8.70;81.72;97986.06;4981297;28;20556;-70
2022/11/07 06:19:07;;;;;;;4.77;4.37;;;8.70;93.00;;;8.72;82.16;97992.91;4979267;28;20465;-71
2022/11/07 06:21:35;;;;;;;7.73;4.90;;;8.60;93.70;;;8.43;82.08;97940.19;4968601;28;20460;-70
2022/11/07 06:24:03;;;;;;;5.83;5.27;;;8.60;93.60;;;8.83;83.68;98006.81;4982038;28;20472;-68
2022/11/07 06:26:31;;;;;;;5.60;4.60;;;8.70;95.90;;;8.89;82.17;98003.31;4958713;28;20871;-69
2022/11/07 06:28:58;;;;;;;5.73;4.60;;;8.80;94.30;;;9.06;79.88;98007.28;4962597;28;20466;-70
2022/11/07 06:31:25;;;;;;;6.23;5.60;;;8.90;92.50;;;8.64;81.32;97947.31;4983572;28;20479;-70
2022/11/07 06:33:52;;;;;;;6.43;4.90;;;8.90;92.70;;;8.99;80.73;98006.41;4983713;28;20463;-70
2022/11/07 06:36:21;;;;;;;5.23;4.63;;;8.90;92.20;;;8.90;79.95;97995.00;4984467;28;20470;-70
2022/11/07 06:38:52;;;;;;;5.67;5.17;;;8.90;91.60;;;8.86;80.54;98009.09;4982244;28;20949;-69
2022/11/07 06:41:19;;;;;;;6.43;5.30;;;8.90;91.70;;;9.02;80.06;98008.72;4978650;28;20822;-71
2022/11/07 06:43:47;;;;;;;5.40;4.90;;;9.00;91.50;;;8.84;80.54;97993.13;4965148;28;20524;-71
2022/11/07 06:46:16;;;;;;;4.93;4.40;;;8.90;91.60;;;8.78;80.59;98008.25;4979698;28;20567;-70
2022/11/07 06:48:43;;;;;;;6.47;5.13;;;8.90;91.60;;;8.89;79.68;98014.09;4980408;28;20532;-70
2022/11/07 06:51:11;;;;;;;5.77;4.77;;;8.90;91.40;;;8.84;80.03;98012.00;4979788;28;20464;-70
2022/11/07 06:53:40;;;;;;;5.20;4.70;;;8.90;91.20;;;8.69;80.64;98020.25;4961883;28;20453;-69
2022/11/07 06:56:12;;;;;;;7.13;5.03;;;8.90;91.30;;;8.94;79.85;98019.69;4978759;28;20490;-70
2022/11/07 06:58:39;;;;;;;7.40;4.67;;;8.90;91.40;;;8.91;80.23;98022.78;4965068;28;20444;-69
2022/11/07 07:01:13;;;;;;;5.60;4.80;;;8.90;91.20;;;9.07;78.83;98027.78;4981385;28;20472;-69
2022/11/07 07:03:42;;;;;;;5.60;4.97;;;9.00;91.00;;;8.71;78.97;97985.84;4977740;28;20465;-68
2022/11/07 07:06:13;;;;;;;6.43;5.83;;;9.00;91.00;;;8.96;79.56;98036.47;4979947;28;20507;-69
2022/11/07 07:08:42;;;;;;;5.83;5.23;;;9.00;90.80;;;8.98;78.92;98034.41;4981749;28;20465;-69
2022/11/07 07:11:13;;;;;;;5.70;5.07;;;9.10;90.90;;;9.03;79.14;98039.19;4979411;28;20525;-70
2022/11/07 07:13:41;;;;;;;6.83;4.93;;;9.10;91.00;;;9.27;79.00;98043.16;4981371;28;20458;-71
2022/11/07 07:16:09;;;;;;;6.87;5.30;;;9.20;90.80;;;9.43;77.88;98046.47;4977172;28;20488;-70
2022/11/07 07:18:36;;;;;;;8.90;5.23;;;9.30;90.20;;;9.59;77.06;98043.34;4985839;28;20460;-69
2022/11/07 07:21:07;;;;;;;5.47;4.30;;;9.40;90.10;;;9.52;76.86;98045.22;4975491;28;20463;-69
2022/11/07 07:23:35;;;;;;;5.40;4.90;;;9.40;90.00;;;9.59;77.34;98040.66;4968923;28;20455;-69
2022/11/07 07:26:05;;;;;;;5.50;5.00;;;9.40;90.00;;;9.47;77.22;98040.47;4980360;28;20530;-70
2022/11/07 07:28:32;;;;;;;6.20;5.00;;;9.40;90.00;;;9.37;77.16;98044.63;4980668;28;20476;-69
2022/11/07 07:31:10;;;;;;;6.13;5.33;;;9.40;90.00;;;9.60;78.06;98036.91;4972853;28;20541;-70
2022/11/07 07:33:38;;;;;;;7.17;5.50;;;9.40;90.00;;;9.49;77.22;98043.78;4969963;28;21765;-69
2022/11/07 07:36:07;;;;;;;5.70;4.50;;;9.50;89.50;;;9.39;77.71;98034.44;4974942;28;20547;-70
2022/11/07 07:38:34;;;;;;;5.93;5.33;;;9.50;89.60;;;9.59;77.54;98037.97;4982129;28;20549;-70
2022/11/07 07:41:03;;;;;;;6.77;4.90;;;9.50;89.40;;;9.42;77.36;98034.88;4977576;28;20473;-69
2022/11/07 07:43:31;;;;;;;6.17;5.40;;;9.60;89.10;;;9.50;77.91;98042.72;4973345;28;20545;-70
2022/11/07 07:45:59;;;;;;;5.40;4.90;;;9.60;89.40;;;9.68;76.62;98040.44;4975994;28;20503;-70
2022/11/07 07:48:27;;;;;;;7.70;5.17;;;9.70;89.10;;;9.71;77.18;98048.13;4965623;28;20540;-69
2022/11/07 07:50:54;;;;;;;8.97;4.93;;;9.70;88.60;;;9.57;77.02;98042.72;4960485;28;20451;-69
2022/11/07 07:53:23;;;;;;;6.50;5.00;;;9.70;88.80;;;9.74;76.36;98048.53;4979232;28;20488;-69
2022/11/07 07:55:50;;;;;;;8.00;5.30;;;9.70;88.60;;;9.75;76.57;98054.75;4981400;28;20884;-68
2022/11/07 07:58:18;;;;;;;5.93;4.83;;;9.80;88.30;;;9.59;77.63;98051.44;4973631;28;20472;-69
2022/11/07 08:00:45;;;;;;;8.20;6.00;;;9.70;88.60;;;9.90;76.77;98047.25;4977548;28;20468;-70
2022/11/07 08:03:13;;;;;;;6.70;4.87;;;9.80;88.80;;;10.09;75.49;98052.00;4962897;28;20489;-71
2022/11/07 08:05:40;;;;;;;7.40;5.57;;;10.00;86.90;;;10.27;74.65;98045.94;4958596;28;20512;-70
2022/11/07 08:08:10;;;;;;;6.47;5.13;;;10.20;86.50;;;10.16;75.09;98050.94;4974977;28;20500;-68
2022/11/07 08:10:37;;;;;;;5.87;5.27;;;10.10;86.20;;;10.11;75.10;98053.47;4983989;28;20463;-69
2022/11/07 08:13:04;;;;;;;8.00;5.50;;;10.20;85.90;;;10.08;75.39;98048.47;4975149;28;20498;-69
2022/11/07 08:15:33;;;;;;;5.10;4.70;;;10.20;86.20;;;10.24;75.16;98051.78;4958620;28;20473;-69
2022/11/07 08:18:03;;;;;;;5.03;4.53;;;10.20;86.00;;;10.15;75.37;98052.00;4980446;28;20490;-68
2022/11/07 08:20:31;;;;;;;7.10;4.63;;;10.30;85.80;;;10.30;74.78;98048.22;4972026;28;21264;-70
2022/11/07 08:23:03;;;;;;;5.83;4.97;;;10.20;86.00;;;10.35;74.65;98054.63;4963704;28;21009;-70
2022/11/07 08:25:31;;;;;;;5.10;4.50;;;10.30;85.80;;;10.48;74.42;98050.25;4962179;28;20977;-70
2022/11/07 08:27:58;;;;;;;9.50;5.37;;;10.40;85.60;;;10.52;73.89;98045.22;4961461;28;20832;-70
2022/11/07 08:30:27;;;;;;;5.03;4.50;;;10.50;85.40;;;10.57;73.35;98043.56;4974262;28;20547;-69
2022/11/07 08:32:55;;;;;;;5.47;4.73;;;10.60;85.00;;;10.61;73.67;98050.22;4974515;28;20473;-71
2022/11/07 08:35:23;;;;;;;5.30;4.33;;;10.60;84.90;;;10.68;73.08;98046.63;4982681;28;20470;-71
2022/11/07 08:37:52;;;;;;;7.00;5.13;;;10.70;84.70;;;10.90;72.17;98053.34;4978931;28;20467;-70
2022/11/07 08:40:19;;;;;;;7.33;4.47;;;10.80;84.50;;;11.15;71.30;98051.78;4976869;28;20474;-69
2022/11/07 08:42:47;;;;;;;5.33;4.50;;;11.00;84.40;;;11.56;69.90;98052.31;4978091;28;20461;-69
2022/11/07 08:45:14;;;;;;;5.13;4.63;;;11.30;83.80;;;11.68;69.90;98050.53;4964375;28;20467;-70
2022/11/07 08:47:41;;;;;;;6.97;4.13;;;11.40;83.40;;;11.54;70.04;98047.09;4980834;28;21314;-69
2022/11/07 08:50:10;;;;;;;4.63;4.20;;;11.40;83.10;;;11.81;69.06;98059.56;4981443;28;20470;-68
2022/11/07 08:52:37;;;;;;;4.80;3.90;;;11.70;83.20;;;12.08;68.31;98056.63;4976557;28;20479;-69
2022/11/07 08:55:08;;;;;;;7.07;4.20;;;11.80;82.50;;;12.43;67.25;98045.19;4978541;28;20481;-74
2022/11/07 08:57:35;;;;;;;6.13;4.63;;;12.20;82.20;;;12.62;66.43;98051.44;4977828;28;20469;-69
2022/11/07 09:00:05;;;;;;;5.60;4.00;;;12.40;81.30;;;12.53;66.33;98047.41;4966393;28;21229;-69
2022/11/07 09:02:32;;;;;;;5.10;3.70;;;12.50;81.00;;;12.51;66.44;98046.75;4967197;28;20457;-69
2022/11/07 09:05:00;;;;;;;3.97;3.67;;;12.50;80.90;;;12.54;66.91;98049.03;4981247;28;20470;-68
2022/11/07 09:07:29;;;;;;;4.60;3.70;;;12.40;81.00;;;12.54;66.69;98041.72;4978132;28;20472;-68
2022/11/07 09:09:56;;;;;;;4.13;3.23;;;12.40;81.00;;;12.48;67.09;98045.34;4979195;28;20478;-69
2022/11/07 09:12:24;;;;;;;4.07;3.67;;;12.40;81.00;;;12.28;67.67;98048.28;4980456;28;20506;-68
2022/11/07 09:14:51;;;;;;;4.83;3.70;;;12.30;81.10;;;12.48;67.17;98042.66;4979052;28;21602;-69
2022/11/07 09:17:18;;;;;;;5.43;3.10;;;12.30;81.30;;;12.71;66.59;98047.38;4981257;28;20481;-67
2022/11/07 09:19:46;;;;;;;5.40;4.13;;;12.40;81.40;;;12.14;66.93;97980.72;4962253;28;20458;-69
2022/11/07 09:22:13;;;;;;;7.10;4.37;;;12.40;81.00;;;12.69;66.51;98046.75;4983247;28;20474;-70
2022/11/07 09:24:42;;;;;;;7.90;4.00;;;12.50;81.00;;;12.60;67.20;98045.41;4958194;28;20798;-68
2022/11/07 09:27:10;;;;;;;6.43;3.87;;;12.50;81.20;;;12.63;66.93;98047.66;4962013;28;20462;-70
2022/11/07 09:29:37;;;;;;;5.47;3.60;;;12.50;81.10;;;12.59;67.38;98049.19;4960873;28;20488;-68
2022/11/07 09:32:04;;;;;;;5.17;3.70;;;12.50;81.30;;;12.74;67.26;98046.91;4979982;28;20483;-69
2022/11/07 09:34:32;;;;;;;5.33;3.30;;;12.60;81.50;;;12.77;67.34;98044.78;4975752;28;20954;-69
2022/11/07 09:36:59;;;;;;;5.73;3.60;;;12.60;81.40;;;12.87;67.09;98047.78;4982060;28;20459;-78
2022/11/07 09:39:26;;;;;;;7.60;4.47;;;12.70;81.40;;;12.93;66.99;98046.84;4959413;28;22234;-67
2022/11/07 09:42:03;;;;;;;8.97;3.30;;;12.80;81.40;;;13.08;66.86;98045.59;4977363;28;20999;-68
2022/11/07 09:44:50;;;;;;;9.43;3.80;;;13.00;81.40;;;13.50;65.87;98048.34;4979822;28;20536;-67
2022/11/07 09:47:23;;;;;;;4.40;2.97;;;13.10;81.40;;;13.42;66.11;98045.91;4982165;28;20464;-68
2022/11/07 09:49:53;;;;;;;5.00;3.37;;;13.20;81.30;;;13.63;66.12;98046.47;4984654;28;20461;-69
2022/11/07 09:52:30;;;;;;;3.83;2.43;;;13.40;81.30;;;13.49;65.98;98045.84;4978200;28;20582;-70
2022/11/07 09:55:01;;;;;;;3.60;2.17;;;13.50;81.00;;;13.67;65.72;98058.50;4961829;28;21248;-68
2022/11/07 09:57:34;;;;;;;2.17;1.93;;;13.50;81.10;;;13.96;64.79;98054.03;4974619;28;20463;-67
2022/11/07 10:00:09;;;;;;;2.00;1.83;;;13.70;80.70;;;14.07;64.46;98046.09;4964947;28;20459;-68
2022/11/07 10:02:42;;;;;;;4.37;2.10;;;13.90;80.70;;;13.79;64.87;98047.63;4979973;28;20462;-69
2022/11/07 10:05:15;;;;;;;2.70;1.57;;;13.80;80.30;;;13.58;65.68;98058.84;4961630;28;21258;-68
2022/11/07 10:07:55;;;;;;;2.60;1.63;;;13.60;80.50;;;13.40;66.12;98054.31;4975913;28;20473;-69
2022/11/07 10:10:33;;;;;;;4.10;1.87;;;13.50;80.30;;;13.33;66.42;98056.28;4980708;28;20471;-70
2022/11/07 10:13:41;;;;;;;2.97;2.00;;;13.50;80.30;;;13.46;66.10;98052.59;4977633;28;20482;-67
2022/11/07 10:16:17;;;;;;;6.00;1.67;;;13.50;80.40;;;13.53;65.97;98057.91;4975929;28;20463;-68
2022/11/07 10:19:02;;;;;;;3.33;1.70;;;13.50;80.70;;;13.53;65.59;98053.28;4966253;28;20541;-82
2022/11/07 10:21:38;;;;;;;3.33;1.87;;;13.60;80.30;;;13.71;65.37;98055.09;4977395;28;20993;-68
2022/11/07 10:24:28;;;;;;;3.60;1.90;;;13.60;80.30;;;13.76;64.97;98058.97;4978182;28;20454;-71
2022/11/07 10:26:57;;;;;;;2.50;1.30;;;13.70;80.30;;;13.74;64.45;98048.38;4981261;28;20484;-69
2022/11/07 10:29:35;;;;;;;5.53;1.87;;;13.80;79.90;;;13.93;64.17;98065.34;4978437;28;20490;-68
2022/11/07 10:32:16;;;;;;;3.97;1.67;;;13.80;79.70;;;13.37;64.60;98010.53;4980334;28;20478;-69
2022/11/07 10:34:48;;;;;;;3.90;1.90;;;13.80;79.40;;;13.92;63.60;98063.69;4959083;28;20530;-69
2022/11/07 10:37:15;;;;;;;2.70;1.73;;;13.90;79.20;;;13.85;64.06;98061.09;4966997;28;20521;-68
2022/11/07 10:39:42;;;;;;;2.73;1.77;;;13.90;79.10;;;14.14;62.92;98068.56;4980090;28;20643;-70
2022/11/07 10:42:14;;;;;;;1.67;1.37;;;14.00;79.00;;;14.18;63.39;98064.28;4977788;28;20478;-69
2022/11/07 10:44:43;;;;;;;4.83;1.63;;;14.10;79.00;;;14.16;62.72;98056.38;4981029;28;21637;-69
2022/11/07 10:47:18;;;;;;;3.40;1.73;;;14.10;78.60;;;14.05;63.22;98059.94;4976535;28;20467;-69
2022/11/07 10:49:58;;;;;;;1.73;1.50;;;14.10;78.80;;;14.08;62.65;98051.31;4962240;28;20450;-69